Time;durP1;ratioP1;P1;durP2;ratioP2;P2;SDS_P1;SDS_P2;PMS_P1;PMS_P2;Temp;Humidity;BMP_temperature;BMP_pressure;BME280_temperature;BME280_humidity;BME280_pressure;Samples;Min_cycle;Max_cycle;Signal;HPM_P1;HPM_P2
2023/05/07 00:00:18;;;;;;;20.90;15.10;;;13.00;99.90;;;;;;5107927;28;20036;-77
2023/05/07 00:02:45;;;;;;;20.58;15.63;;;13.00;99.90;;;;;;5091096;28;20395;-78
2023/05/07 00:05:10;;;;;;;21.83;15.45;;;12.90;99.90;;;;;;5090918;28;20093;-78
2023/05/07 00:07:36;;;;;;;21.38;15.65;;;12.90;99.90;;;;;;5074043;28;20027;-77
2023/05/07 00:10:02;;;;;;;19.70;16.20;;;12.90;99.90;;;;;;5090651;28;20122;-78
2023/05/07 00:12:31;;;;;;;20.25;15.73;;;12.90;99.90;;;;;;5090198;28;20040;-77
2023/05/07 00:14:57;;;;;;;21.63;16.10;;;12.80;99.90;;;;;;5073678;28;20499;-77
2023/05/07 00:17:22;;;;;;;20.50;15.52;;;12.80;99.90;;;;;;5073841;28;20134;-76
2023/05/07 00:19:48;;;;;;;23.50;16.48;;;12.70;99.90;;;;;;5090209;28;20043;-76
2023/05/07 00:22:13;;;;;;;21.13;16.10;;;12.70;99.90;;;;;;5090809;28;20576;-78
2023/05/07 00:24:39;;;;;;;21.60;15.93;;;12.70;99.90;;;;;;5090301;28;20028;-77
2023/05/07 00:27:04;;;;;;;18.35;15.25;;;12.70;99.90;;;;;;5064160;28;20033;-76
2023/05/07 00:29:30;;;;;;;23.70;16.02;;;12.70;99.90;;;;;;5085517;28;20047;-77
2023/05/07 00:31:56;;;;;;;23.33;16.17;;;12.60;99.90;;;;;;5090320;28;20055;-76
2023/05/07 00:34:22;;;;;;;19.90;16.42;;;12.60;99.90;;;;;;5090461;28;20047;-76
2023/05/07 00:36:48;;;;;;;23.83;17.15;;;12.60;99.90;;;;;;5090154;28;20040;-76
2023/05/07 00:39:13;;;;;;;22.13;16.70;;;12.60;99.90;;;;;;5090023;28;20521;-76
2023/05/07 00:41:39;;;;;;;22.55;16.45;;;12.50;99.90;;;;;;5089917;28;20064;-76
2023/05/07 00:44:04;;;;;;;21.83;15.95;;;12.50;99.90;;;;;;5090021;28;20520;-76
2023/05/07 00:46:31;;;;;;;24.35;16.95;;;12.50;99.90;;;;;;5088548;28;20036;-76
2023/05/07 00:48:57;;;;;;;21.08;16.65;;;12.50;99.90;;;;;;5077375;28;20123;-76
2023/05/07 00:51:25;;;;;;;21.25;17.25;;;12.50;99.90;;;;;;5090057;28;20067;-76
2023/05/07 00:53:50;;;;;;;21.60;16.95;;;12.50;99.90;;;;;;5089901;28;20087;-76
2023/05/07 00:56:16;;;;;;;24.85;17.60;;;12.50;99.90;;;;;;5080961;28;20086;-76
2023/05/07 00:58:42;;;;;;;23.88;17.75;;;12.40;99.90;;;;;;5095914;28;20152;-78
2023/05/07 01:01:08;;;;;;;21.02;16.80;;;12.40;99.90;;;;;;5089795;28;20040;-76
2023/05/07 01:03:33;;;;;;;22.98;17.20;;;12.40;99.90;;;;;;5089869;28;20028;-76
2023/05/07 01:06:01;;;;;;;29.33;17.45;;;12.30;99.90;;;;;;5089788;28;20032;-76
2023/05/07 01:08:29;;;;;;;24.30;17.50;;;12.30;99.90;;;;;;5089672;28;20048;-76
2023/05/07 01:10:56;;;;;;;23.60;16.30;;;12.30;99.90;;;;;;5089733;28;20036;-76
2023/05/07 01:13:22;;;;;;;22.02;16.73;;;12.30;99.90;;;;;;5089706;28;20063;-78
2023/05/07 01:15:47;;;;;;;22.42;16.77;;;12.30;99.90;;;;;;5089797;28;20067;-75
2023/05/07 01:18:13;;;;;;;21.00;16.63;;;12.20;99.90;;;;;;5089626;28;20114;-77
2023/05/07 01:20:39;;;;;;;22.40;17.75;;;12.20;99.90;;;;;;5073070;28;20040;-77
2023/05/07 01:23:06;;;;;;;25.00;18.65;;;12.20;99.90;;;;;;5074261;28;20028;-76
2023/05/07 01:25:32;;;;;;;25.35;18.05;;;12.20;99.90;;;;;;5110788;28;20048;-76
2023/05/07 01:27:59;;;;;;;23.42;18.25;;;12.10;99.90;;;;;;5110529;28;20040;-77
2023/05/07 01:30:25;;;;;;;23.58;17.67;;;12.10;99.90;;;;;;5093942;28;20087;-76
2023/05/07 01:32:56;;;;;;;21.77;17.10;;;12.10;99.90;;;;;;5110911;28;20521;-77
2023/05/07 01:35:26;;;;;;;21.35;16.98;;;12.00;99.90;;;;;;5111178;28;20376;-78
2023/05/07 01:37:52;;;;;;;24.33;17.60;;;12.00;99.90;;;;;;5093713;28;20123;-76
2023/05/07 01:40:18;;;;;;;24.13;17.85;;;12.00;99.90;;;;;;5093162;28;20043;-79
2023/05/07 01:42:45;;;;;;;23.55;19.17;;;11.90;99.90;;;;;;5076735;28;20548;-79
2023/05/07 01:45:11;;;;;;;25.05;19.55;;;12.00;99.90;;;;;;5093355;28;20044;-78
2023/05/07 01:47:38;;;;;;;23.52;18.90;;;11.90;99.90;;;;;;5093378;28;20036;-77
2023/05/07 01:50:05;;;;;;;23.17;19.10;;;11.90;99.90;;;;;;5093282;28;20529;-77
2023/05/07 01:52:31;;;;;;;22.83;18.60;;;11.90;99.90;;;;;;5093437;28;20097;-78
2023/05/07 01:54:57;;;;;;;27.20;19.45;;;11.90;99.90;;;;;;5093312;28;20519;-77
2023/05/07 01:57:22;;;;;;;25.33;19.67;;;11.80;99.90;;;;;;5090591;28;20039;-79
2023/05/07 01:59:48;;;;;;;27.17;19.50;;;11.80;99.90;;;;;;5093349;28;20043;-78
2023/05/07 02:02:13;;;;;;;24.13;19.30;;;11.80;99.90;;;;;;5093309;28;20071;-78
2023/05/07 02:04:39;;;;;;;27.00;20.52;;;11.80;99.90;;;;;;5093423;28;20074;-78
2023/05/07 02:07:04;;;;;;;26.48;20.40;;;11.70;99.90;;;;;;5076262;28;20032;-78
2023/05/07 02:09:30;;;;;;;25.52;20.13;;;11.70;99.90;;;;;;5092982;28;20028;-78
2023/05/07 02:11:55;;;;;;;27.02;20.00;;;11.70;99.90;;;;;;5093032;28;20071;-78
2023/05/07 02:14:21;;;;;;;27.23;20.88;;;11.60;99.90;;;;;;5092840;28;20040;-77
2023/05/07 02:16:46;;;;;;;27.00;20.33;;;11.60;99.90;;;;;;5075869;28;20074;-78
2023/05/07 02:19:12;;;;;;;26.25;20.08;;;11.60;99.90;;;;;;5092778;28;20040;-76
2023/05/07 02:21:37;;;;;;;26.35;20.33;;;11.60;99.90;;;;;;5094100;28;20036;-77
2023/05/07 02:24:03;;;;;;;28.40;21.25;;;11.60;99.90;;;;;;5075718;28;20511;-78
2023/05/07 02:26:29;;;;;;;26.50;20.60;;;11.60;99.90;;;;;;5056981;28;20032;-77
2023/05/07 02:28:54;;;;;;;27.92;21.17;;;11.60;99.90;;;;;;5082933;28;20101;-77
2023/05/07 02:31:20;;;;;;;28.38;21.35;;;11.60;99.90;;;;;;5092492;28;20087;-77
2023/05/07 02:33:45;;;;;;;28.90;21.48;;;11.60;99.90;;;;;;5092546;28;20044;-76
2023/05/07 02:36:12;;;;;;;29.48;21.20;;;11.50;99.90;;;;;;5091646;28;20398;-77
2023/05/07 02:38:37;;;;;;;28.20;20.70;;;11.50;99.90;;;;;;5092141;28;20077;-76
2023/05/07 02:41:03;;;;;;;28.13;21.27;;;11.50;99.90;;;;;;5075379;28;20044;-77
2023/05/07 02:43:29;;;;;;;30.92;21.85;;;11.50;99.90;;;;;;5092256;28;20085;-76
2023/05/07 02:46:06;;;;;;;33.63;21.55;;;11.50;99.90;;;;;;5092317;28;20028;-76
2023/05/07 02:48:31;;;;;;;30.02;22.10;;;11.50;99.90;;;;;;5091962;28;20029;-77
2023/05/07 02:50:58;;;;;;;32.33;22.63;;;11.50;99.90;;;;;;5092274;28;20043;-77
2023/05/07 02:53:25;;;;;;;30.10;22.30;;;11.50;99.90;;;;;;5091838;28;20036;-76
2023/05/07 02:55:55;;;;;;;29.98;21.15;;;11.50;99.90;;;;;;5079873;28;20043;-75
2023/05/07 02:58:20;;;;;;;31.83;21.42;;;11.40;99.90;;;;;;5100984;28;20111;-76
2023/05/07 03:00:46;;;;;;;36.22;23.23;;;11.40;99.90;;;;;;5091916;28;20119;-75
2023/05/07 03:03:12;;;;;;;30.67;23.05;;;11.40;99.90;;;;;;5092012;28;20469;-76
2023/05/07 03:05:37;;;;;;;32.42;22.27;;;11.40;99.90;;;;;;5091777;28;20563;-76
2023/05/07 03:08:03;;;;;;;34.70;23.55;;;11.40;99.90;;;;;;5091593;28;20040;-76
2023/05/07 03:10:29;;;;;;;33.53;22.80;;;11.40;99.90;;;;;;5091918;28;20047;-76
2023/05/07 03:12:55;;;;;;;35.20;22.75;;;11.40;99.90;;;;;;5108674;28;20043;-76
2023/05/07 03:15:21;;;;;;;32.47;23.05;;;11.40;99.90;;;;;;5091627;28;20596;-77
2023/05/07 03:17:47;;;;;;;33.45;23.25;;;11.40;99.90;;;;;;5091484;28;20063;-75
2023/05/07 03:20:13;;;;;;;32.10;23.05;;;11.40;99.90;;;;;;5091396;28;20113;-76
2023/05/07 03:22:38;;;;;;;33.25;22.70;;;11.40;99.90;;;;;;5091306;28;20047;-75
2023/05/07 03:25:05;;;;;;;33.50;23.15;;;11.30;99.90;;;;;;5084484;28;20039;-76
2023/05/07 03:27:30;;;;;;;34.50;24.02;;;11.30;99.90;;;;;;5084526;28;20407;-76
2023/05/07 03:29:56;;;;;;;32.85;23.67;;;11.30;99.90;;;;;;5091193;28;20040;-74
2023/05/07 03:32:21;;;;;;;32.38;22.58;;;11.30;99.90;;;;;;5091550;28;20059;-76
2023/05/07 03:34:47;;;;;;;31.48;22.83;;;11.30;99.90;;;;;;5091296;28;20047;-75
2023/05/07 03:37:12;;;;;;;34.88;23.35;;;11.30;99.90;;;;;;5090984;28;20435;-75
2023/05/07 03:39:38;;;;;;;34.10;24.05;;;11.30;99.90;;;;;;5090917;28;20476;-78
2023/05/07 03:42:03;;;;;;;36.53;23.70;;;11.30;99.90;;;;;;5091246;28;20032;-76
2023/05/07 03:44:29;;;;;;;35.55;25.02;;;11.30;99.90;;;;;;5091110;28;20040;-75
2023/05/07 03:46:55;;;;;;;39.20;24.88;;;11.30;99.90;;;;;;5089915;28;20038;-75
2023/05/07 03:49:21;;;;;;;33.20;23.75;;;11.30;99.90;;;;;;5090968;28;20028;-75
2023/05/07 03:51:46;;;;;;;33.42;23.25;;;11.30;99.90;;;;;;5090814;28;20507;-75
2023/05/07 03:54:12;;;;;;;34.15;24.55;;;11.30;99.90;;;;;;5074025;28;20044;-75
2023/05/07 03:56:37;;;;;;;34.10;22.73;;;11.20;99.90;;;;;;5102025;28;20380;-75
2023/05/07 03:59:03;;;;;;;33.67;23.33;;;11.30;99.90;;;;;;5093897;28;20143;-75
2023/05/07 04:01:28;;;;;;;36.42;25.95;;;11.20;99.90;;;;;;5090752;28;20495;-76
2023/05/07 04:03:54;;;;;;;35.30;22.85;;;11.20;99.90;;;;;;5076543;28;20037;-76
2023/05/07 04:06:19;;;;;;;34.50;23.55;;;11.20;99.90;;;;;;5090622;28;20416;-76
2023/05/07 04:08:45;;;;;;;31.10;22.55;;;11.20;99.90;;;;;;5090768;28;20043;-75
2023/05/07 04:11:10;;;;;;;34.03;23.63;;;11.20;99.90;;;;;;5090569;28;20043;-76
2023/05/07 04:13:36;;;;;;;34.08;23.73;;;11.20;99.90;;;;;;5090571;28;20044;-76
2023/05/07 04:16:03;;;;;;;35.97;23.98;;;11.20;99.90;;;;;;5090541;28;20042;-76
2023/05/07 04:18:29;;;;;;;35.30;24.65;;;11.20;99.90;;;;;;5090519;28;20098;-76
2023/05/07 04:20:55;;;;;;;34.33;23.35;;;11.20;99.90;;;;;;5090339;28;20039;-76
2023/05/07 04:23:20;;;;;;;31.98;23.95;;;11.20;99.90;;;;;;5090557;28;20054;-76
2023/05/07 04:25:46;;;;;;;35.28;23.08;;;11.20;99.90;;;;;;5090519;28;20032;-76
2023/05/07 04:28:12;;;;;;;35.78;24.95;;;11.10;99.90;;;;;;5090423;28;20038;-76
2023/05/07 04:30:38;;;;;;;34.45;24.67;;;11.10;99.90;;;;;;5090472;28;20101;-76
2023/05/07 04:33:03;;;;;;;33.88;23.15;;;11.10;99.90;;;;;;5090187;28;20395;-76
2023/05/07 04:35:29;;;;;;;33.30;24.48;;;11.10;99.90;;;;;;5073491;28;20032;-76
2023/05/07 04:37:54;;;;;;;32.13;23.00;;;11.00;99.90;;;;;;5089980;28;20047;-76
2023/05/07 04:40:20;;;;;;;32.08;22.85;;;11.00;99.90;;;;;;5089995;28;20093;-76
2023/05/07 04:42:45;;;;;;;33.08;23.83;;;11.00;99.90;;;;;;5090412;28;20047;-76
2023/05/07 04:45:12;;;;;;;31.23;22.63;;;11.00;99.90;;;;;;5090353;28;20040;-76
2023/05/07 04:47:38;;;;;;;33.42;21.92;;;11.00;99.90;;;;;;5089959;28;20554;-76
2023/05/07 04:50:04;;;;;;;33.10;22.75;;;11.00;99.90;;;;;;5072810;28;20047;-75
2023/05/07 04:52:30;;;;;;;32.00;22.63;;;11.00;99.90;;;;;;5089993;28;20063;-76
2023/05/07 04:54:56;;;;;;;34.13;23.08;;;11.00;99.90;;;;;;5073389;28;20395;-75
2023/05/07 04:57:22;;;;;;;30.05;22.20;;;11.00;99.90;;;;;;5103987;28;20044;-75
2023/05/07 04:59:47;;;;;;;31.83;23.70;;;11.00;99.90;;;;;;5089802;28;20040;-76
2023/05/07 05:02:13;;;;;;;33.72;22.23;;;11.00;99.90;;;;;;5089908;28;20044;-77
2023/05/07 05:04:38;;;;;;;30.77;21.45;;;11.00;99.90;;;;;;5089712;28;20028;-76
2023/05/07 05:07:04;;;;;;;32.75;22.65;;;11.00;99.90;;;;;;5060222;28;20119;-76
2023/05/07 05:09:30;;;;;;;32.97;23.13;;;11.00;99.90;;;;;;5088628;28;20104;-76
2023/05/07 05:11:55;;;;;;;30.83;21.77;;;11.00;99.90;;;;;;5089873;28;20119;-76
2023/05/07 05:14:21;;;;;;;30.85;22.52;;;11.00;99.90;;;;;;5089737;28;20584;-75
2023/05/07 05:16:46;;;;;;;32.45;22.27;;;11.00;99.90;;;;;;5090060;28;20545;-76
2023/05/07 05:19:12;;;;;;;29.50;21.95;;;11.00;99.90;;;;;;5089545;28;20049;-76
2023/05/07 05:21:37;;;;;;;30.77;21.73;;;11.00;99.90;;;;;;5089762;28;20043;-77
2023/05/07 05:24:03;;;;;;;31.98;22.60;;;11.00;99.90;;;;;;5073187;28;20489;-77
2023/05/07 05:26:29;;;;;;;28.90;21.15;;;11.00;99.90;;;;;;5089726;28;20036;-77
2023/05/07 05:28:54;;;;;;;28.73;20.67;;;11.10;99.90;;;;;;5089486;28;20032;-77
2023/05/07 05:31:21;;;;;;;25.60;20.67;;;11.00;99.90;;;;;;5089769;28;20402;-75
2023/05/07 05:33:46;;;;;;;31.25;22.15;;;11.00;99.90;;;;;;5089525;28;20550;-76
2023/05/07 05:36:12;;;;;;;28.30;21.15;;;11.00;99.90;;;;;;5075595;28;20123;-77
2023/05/07 05:38:39;;;;;;;27.38;20.55;;;11.00;99.90;;;;;;5089405;28;20115;-77
2023/05/07 05:41:04;;;;;;;31.45;21.45;;;11.00;99.90;;;;;;5072657;28;20078;-76
2023/05/07 05:43:30;;;;;;;30.02;20.80;;;11.00;99.90;;;;;;5089385;28;20499;-75
2023/05/07 05:45:56;;;;;;;27.55;20.17;;;11.00;99.90;;;;;;5089797;28;20067;-75
2023/05/07 05:48:22;;;;;;;29.20;20.10;;;11.00;99.90;;;;;;5088985;28;20070;-77
2023/05/07 05:50:48;;;;;;;28.02;20.55;;;11.00;99.90;;;;;;5089529;28;20075;-75
2023/05/07 05:53:13;;;;;;;27.33;20.52;;;11.00;99.90;;;;;;5089687;28;20036;-76
2023/05/07 05:55:39;;;;;;;28.85;20.90;;;11.00;99.90;;;;;;5075354;28;20039;-75
2023/05/07 05:58:04;;;;;;;30.52;21.55;;;11.00;99.90;;;;;;5100763;28;20044;-76
2023/05/07 06:00:32;;;;;;;30.33;20.73;;;11.00;99.90;;;;;;5089045;28;20511;-75
2023/05/07 06:02:57;;;;;;;30.40;21.50;;;11.00;99.90;;;;;;5089231;28;20036;-75
2023/05/07 06:05:23;;;;;;;29.38;20.55;;;11.00;99.90;;;;;;5089320;28;20037;-76
2023/05/07 06:07:48;;;;;;;27.10;20.52;;;11.00;99.90;;;;;;5089136;28;20040;-76
2023/05/07 06:10:14;;;;;;;26.63;19.35;;;11.00;99.90;;;;;;5090962;28;20606;-76
2023/05/07 06:12:40;;;;;;;26.83;19.80;;;11.00;99.90;;;;;;5092814;28;20044;-76
2023/05/07 06:15:06;;;;;;;27.80;19.67;;;11.00;99.90;;;;;;5076028;28;20036;-76
2023/05/07 06:17:31;;;;;;;25.63;19.77;;;11.00;99.90;;;;;;5061619;28;20093;-77
2023/05/07 06:19:57;;;;;;;25.52;19.83;;;11.00;99.90;;;;;;5092753;28;20446;-76
2023/05/07 06:22:22;;;;;;;25.35;18.88;;;11.10;99.90;;;;;;5092776;28;20035;-76
2023/05/07 06:24:48;;;;;;;26.48;20.52;;;11.10;99.90;;;;;;5092578;28;20555;-76
2023/05/07 06:27:13;;;;;;;25.33;19.40;;;11.20;99.90;;;;;;5092831;28;20039;-76
2023/05/07 06:29:39;;;;;;;27.02;19.92;;;11.20;99.90;;;;;;5092584;28;20132;-77
2023/05/07 06:32:11;;;;;;;27.85;20.48;;;11.20;99.90;;;;;;5092643;28;20115;-76
2023/05/07 06:34:38;;;;;;;26.45;19.02;;;11.20;99.90;;;;;;5109731;28;20036;-77
2023/05/07 06:37:03;;;;;;;26.13;19.50;;;11.20;99.90;;;;;;5092695;28;20040;-78
2023/05/07 06:39:29;;;;;;;24.52;18.50;;;11.30;99.90;;;;;;5092607;28;20670;-76
2023/05/07 06:41:54;;;;;;;27.33;18.90;;;11.30;99.90;;;;;;5092647;28;20036;-79
2023/05/07 06:44:20;;;;;;;26.60;18.50;;;11.40;99.90;;;;;;5092566;28;20035;-76
2023/05/07 06:46:45;;;;;;;25.15;19.08;;;11.40;99.90;;;;;;5092162;28;20077;-77
2023/05/07 06:49:13;;;;;;;24.90;19.20;;;11.40;99.90;;;;;;5092618;28;20484;-79
2023/05/07 06:51:38;;;;;;;26.67;19.10;;;11.40;99.90;;;;;;5092811;28;20040;-78
2023/05/07 06:54:04;;;;;;;28.45;19.48;;;11.40;99.90;;;;;;5075957;28;20043;-79
2023/05/07 06:56:31;;;;;;;25.08;18.58;;;11.40;99.90;;;;;;5102312;28;20040;-79
2023/05/07 06:58:56;;;;;;;26.88;19.10;;;11.50;99.90;;;;;;5096215;28;20063;-77
2023/05/07 07:01:22;;;;;;;24.13;18.60;;;11.50;99.90;;;;;;5092041;28;20040;-78
2023/05/07 07:03:47;;;;;;;26.75;19.00;;;11.60;99.90;;;;;;5075183;28;20104;-77
2023/05/07 07:06:13;;;;;;;24.27;18.23;;;11.60;99.90;;;;;;5092008;28;20032;-78
2023/05/07 07:08:39;;;;;;;24.42;18.80;;;11.60;99.90;;;;;;5092145;28;20071;-77
2023/05/07 07:11:05;;;;;;;26.33;19.70;;;11.60;99.90;;;;;;5092162;28;20067;-79
2023/05/07 07:13:31;;;;;;;25.08;18.48;;;11.60;99.90;;;;;;5092418;28;20415;-78
2023/05/07 07:15:56;;;;;;;23.65;18.20;;;11.60;99.90;;;;;;5092151;28;20047;-77
2023/05/07 07:18:22;;;;;;;25.95;19.55;;;11.60;99.90;;;;;;5091763;28;20074;-77
2023/05/07 07:20:47;;;;;;;24.42;18.60;;;11.60;99.90;;;;;;5091826;28;20090;-78
2023/05/07 07:23:14;;;;;;;25.83;18.63;;;11.60;99.90;;;;;;5091955;28;20191;-79
2023/05/07 07:25:39;;;;;;;27.50;19.65;;;11.60;99.90;;;;;;5092303;28;20044;-78
2023/05/07 07:28:05;;;;;;;26.23;19.60;;;11.70;99.90;;;;;;5091820;28;20376;-78
2023/05/07 07:30:31;;;;;;;26.63;19.20;;;11.70;99.90;;;;;;5092007;28;20092;-78
2023/05/07 07:33:02;;;;;;;28.60;20.73;;;11.80;99.90;;;;;;5091952;28;20067;-79
2023/05/07 07:35:30;;;;;;;28.85;21.17;;;11.80;99.90;;;;;;5075315;28;20035;-77
2023/05/07 07:37:56;;;;;;;31.02;22.15;;;11.90;99.90;;;;;;5092897;28;20040;-79
2023/05/07 07:40:22;;;;;;;31.88;22.20;;;12.00;99.90;;;;;;5091801;28;20047;-80
2023/05/07 07:42:47;;;;;;;29.17;20.50;;;12.00;99.90;;;;;;5091772;28;20491;-78
2023/05/07 07:45:13;;;;;;;28.67;21.08;;;12.00;99.90;;;;;;5091446;28;20031;-77
2023/05/07 07:47:40;;;;;;;28.05;19.70;;;12.10;99.90;;;;;;5091217;28;20090;-78
2023/05/07 07:50:06;;;;;;;26.88;19.45;;;12.10;99.90;;;;;;5091004;28;20075;-77
2023/05/07 07:52:32;;;;;;;27.58;19.30;;;12.10;99.90;;;;;;5091231;28;20046;-77
2023/05/07 07:54:58;;;;;;;26.98;19.13;;;12.20;99.90;;;;;;5090895;28;20539;-78
2023/05/07 07:57:23;;;;;;;26.48;19.80;;;12.20;99.90;;;;;;5088268;28;20127;-79
2023/05/07 07:59:49;;;;;;;25.23;20.38;;;12.20;99.90;;;;;;5090768;28;20036;-75
2023/05/07 08:02:15;;;;;;;24.65;19.13;;;12.20;99.90;;;;;;5091217;28;20399;-75
2023/05/07 08:04:43;;;;;;;27.58;19.70;;;12.20;99.90;;;;;;5090943;28;20036;-77
2023/05/07 08:07:11;;;;;;;28.80;20.38;;;12.20;99.90;;;;;;5060628;28;20083;-77
2023/05/07 08:09:38;;;;;;;28.23;19.83;;;12.20;99.90;;;;;;5090532;28;20123;-77
2023/05/07 08:12:04;;;;;;;27.00;19.42;;;12.20;99.90;;;;;;5090898;28;20067;-78
2023/05/07 08:14:30;;;;;;;25.48;19.08;;;12.30;99.90;;;;;;5090408;28;20561;-76
2023/05/07 08:16:55;;;;;;;28.30;19.95;;;12.20;99.90;;;;;;5090588;28;20047;-78
2023/05/07 08:19:21;;;;;;;27.10;20.58;;;12.30;99.90;;;;;;5090314;28;20036;-77
2023/05/07 08:21:47;;;;;;;29.58;20.02;;;12.30;99.90;;;;;;5091271;28;20040;-77
2023/05/07 08:24:13;;;;;;;27.35;19.98;;;12.30;99.90;;;;;;5073782;28;20032;-76
2023/05/07 08:26:39;;;;;;;28.65;20.30;;;12.40;99.90;;;;;;5107679;28;20054;-76
2023/05/07 08:29:05;;;;;;;27.25;20.05;;;12.40;99.90;;;;;;5090248;28;20032;-76
2023/05/07 08:31:31;;;;;;;26.30;19.00;;;12.50;99.90;;;;;;5073525;28;20384;-77
2023/05/07 08:33:57;;;;;;;27.60;20.35;;;12.60;99.90;;;;;;5073441;28;20036;-76
2023/05/07 08:36:23;;;;;;;29.70;20.10;;;12.70;99.90;;;;;;5090198;28;20040;-77
2023/05/07 08:38:49;;;;;;;25.98;19.85;;;12.90;99.90;;;;;;5090053;28;20054;-78
2023/05/07 08:41:16;;;;;;;28.50;21.00;;;13.00;99.90;;;;;;5090262;28;20504;-76
2023/05/07 08:43:41;;;;;;;26.98;19.80;;;13.10;99.90;;;;;;5073566;28;20040;-77
2023/05/07 08:46:09;;;;;;;25.55;19.60;;;13.10;99.90;;;;;;5090269;28;20062;-81
2023/05/07 08:48:35;;;;;;;26.17;20.48;;;13.20;99.90;;;;;;5090005;28;20051;-80
2023/05/07 08:51:01;;;;;;;27.45;20.40;;;13.30;99.90;;;;;;5073799;28;20495;-77
2023/05/07 08:53:27;;;;;;;26.00;19.30;;;13.30;99.90;;;;;;5089969;28;20131;-78
2023/05/07 08:55:53;;;;;;;26.92;20.73;;;13.30;99.90;;;;;;5094528;28;20044;-77
2023/05/07 08:58:18;;;;;;;25.20;19.42;;;13.40;99.90;;;;;;5099413;28;20051;-76
2023/05/07 09:00:44;;;;;;;25.50;19.60;;;13.50;99.90;;;;;;5090225;28;20040;-77
2023/05/07 09:03:12;;;;;;;25.73;19.48;;;13.50;99.90;;;;;;5090038;28;20058;-76
2023/05/07 09:05:38;;;;;;;27.58;20.27;;;13.60;99.90;;;;;;5090195;28;20496;-76
2023/05/07 09:08:05;;;;;;;26.25;19.90;;;13.70;99.90;;;;;;5089807;28;20043;-79
2023/05/07 09:10:32;;;;;;;25.33;18.98;;;13.80;99.90;;;;;;5090089;28;20051;-79
2023/05/07 09:12:58;;;;;;;26.73;18.67;;;14.00;99.90;;;;;;5075962;28;20361;-76
2023/05/07 09:15:24;;;;;;;26.70;19.42;;;14.10;99.90;;;;;;5089920;28;20081;-77
2023/05/07 09:17:50;;;;;;;24.20;19.38;;;14.10;99.90;;;;;;5089772;28;20044;-77
2023/05/07 09:20:16;;;;;;;25.70;19.27;;;14.20;99.90;;;;;;5090013;28;20048;-75
2023/05/07 09:22:42;;;;;;;25.27;19.63;;;14.20;99.90;;;;;;5089815;28;20333;-76
2023/05/07 09:25:09;;;;;;;24.27;18.80;;;14.40;99.90;;;;;;5089977;28;20040;-77
2023/05/07 09:27:34;;;;;;;25.00;18.33;;;14.50;99.90;;;;;;5089857;28;20044;-75
2023/05/07 09:30:06;;;;;;;25.27;18.67;;;14.50;99.90;;;;;;5089637;28;20051;-76
2023/05/07 09:32:37;;;;;;;24.77;18.45;;;14.50;99.90;;;;;;5089914;28;20541;-76
2023/05/07 09:35:03;;;;;;;25.70;18.60;;;14.60;99.90;;;;;;5054078;28;20025;-77
2023/05/07 09:37:31;;;;;;;26.05;18.90;;;14.60;99.90;;;;;;5080692;28;20039;-76
2023/05/07 09:39:56;;;;;;;22.17;17.77;;;14.70;99.90;;;;;;5089534;28;20028;-76
2023/05/07 09:42:26;;;;;;;24.83;18.70;;;14.70;99.90;;;;;;5089597;28;20456;-77
2023/05/07 09:44:52;;;;;;;23.08;17.77;;;14.90;99.90;;;;;;5090796;28;20050;-75
2023/05/07 09:47:24;;;;;;;22.80;18.27;;;15.10;99.90;;;;;;5093645;28;20027;-76
2023/05/07 09:49:52;;;;;;;24.30;18.58;;;15.10;99.90;;;;;;5093281;28;20559;-76
2023/05/07 09:52:18;;;;;;;22.58;17.13;;;15.10;99.90;;;;;;5093652;28;20046;-77
2023/05/07 09:54:45;;;;;;;23.85;18.20;;;15.20;99.90;;;;;;5093476;28;20040;-77
2023/05/07 09:57:14;;;;;;;23.92;18.17;;;15.30;99.90;;;;;;5107661;28;20491;-76
2023/05/07 09:59:43;;;;;;;24.23;19.00;;;15.40;99.90;;;;;;5093585;28;20120;-78
2023/05/07 10:02:10;;;;;;;21.63;17.30;;;15.30;99.90;;;;;;5093150;28;20122;-75
2023/05/07 10:04:36;;;;;;;22.35;17.17;;;15.40;99.90;;;;;;5093214;28;20557;-77
2023/05/07 10:07:04;;;;;;;23.70;17.27;;;15.50;99.90;;;;;;5092982;28;20076;-77
2023/05/07 10:09:30;;;;;;;24.73;18.13;;;15.60;99.90;;;;;;5093361;28;20550;-77
2023/05/07 10:11:56;;;;;;;23.58;18.02;;;15.70;99.90;;;;;;5076354;28;20040;-76
2023/05/07 10:14:23;;;;;;;23.13;17.77;;;15.80;99.90;;;;;;5076177;28;20055;-76
2023/05/07 10:16:49;;;;;;;21.73;17.15;;;15.80;99.90;;;;;;5093004;28;20063;-76
2023/05/07 10:19:16;;;;;;;22.55;17.92;;;15.80;99.90;;;;;;5093004;28;20507;-77
2023/05/07 10:21:53;;;;;;;21.55;18.17;;;15.80;99.90;;;;;;5093087;28;20042;-77
2023/05/07 10:24:26;;;;;;;23.20;17.73;;;15.70;99.90;;;;;;5092957;28;20115;-75
2023/05/07 10:26:54;;;;;;;21.73;17.42;;;15.80;99.90;;;;;;5093055;28;20036;-76
2023/05/07 10:29:38;;;;;;;24.52;17.77;;;15.80;99.90;;;;;;5092985;28;20500;-79
2023/05/07 10:32:20;;;;;;;20.45;17.58;;;15.90;99.90;;;;;;5081943;28;20047;-76
2023/05/07 10:34:50;;;;;;;21.38;17.13;;;16.00;99.90;;;;;;5094060;28;20086;-78
2023/05/07 10:37:17;;;;;;;21.17;17.27;;;16.00;99.90;;;;;;5093331;28;20044;-77
2023/05/07 10:39:42;;;;;;;20.17;16.75;;;16.20;99.90;;;;;;5093275;28;20511;-77
2023/05/07 10:42:13;;;;;;;19.15;16.05;;;16.30;99.90;;;;;;5092797;28;20047;-77
2023/05/07 10:44:39;;;;;;;23.92;17.42;;;16.40;99.90;;;;;;5110311;28;20036;-78
2023/05/07 10:47:09;;;;;;;20.70;16.25;;;16.60;99.90;;;;;;5092966;28;20854;-77
2023/05/07 10:49:43;;;;;;;19.15;15.50;;;16.70;99.90;;;;;;5092690;28;20093;-77
2023/05/07 10:52:21;;;;;;;18.17;15.48;;;16.80;99.90;;;;;;5092589;28;20040;-81
2023/05/07 10:54:47;;;;;;;19.73;16.65;;;16.80;99.90;;;;;;5092752;28;20503;-78
2023/05/07 10:57:35;;;;;;;20.27;16.38;;;16.80;99.90;;;;;;5085191;28;20035;-78
2023/05/07 11:00:03;;;;;;;19.35;15.40;;;16.70;99.90;;;;;;5092206;28;20051;-76
2023/05/07 11:03:02;;;;;;;17.63;14.60;;;16.80;99.90;;;;;;5092594;28;20040;-78
2023/05/07 11:05:32;;;;;;;18.85;15.38;;;17.00;99.90;;;;;;5092512;28;20089;-77
2023/05/07 11:08:03;;;;;;;20.08;15.25;;;17.10;99.90;;;;;;5092327;28;20064;-76
2023/05/07 11:10:52;;;;;;;18.48;15.30;;;17.60;99.90;;;;;;5092760;28;20114;-76
2023/05/07 11:13:38;;;;;;;18.25;15.35;;;17.30;99.90;;;;;;5081252;28;20487;-80
2023/05/07 11:16:04;;;;;;;18.50;15.55;;;17.20;99.90;;;;;;5110389;28;20036;-76
2023/05/07 11:18:47;;;;;;;16.33;14.50;;;17.20;99.90;;;;;;5092016;28;20063;-77
2023/05/07 11:21:31;;;;;;;16.65;14.50;;;17.50;99.90;;;;;;5093386;28;20046;-78
2023/05/07 11:23:57;;;;;;;17.70;15.23;;;17.60;99.90;;;;;;5092942;28;20036;-76
2023/05/07 11:26:23;;;;;;;18.08;15.43;;;17.70;99.90;;;;;;5092679;28;20087;-78
2023/05/07 11:28:50;;;;;;;18.20;14.77;;;18.00;99.90;;;;;;5110345;28;20436;-80
2023/05/07 11:31:21;;;;;;;16.17;14.48;;;18.30;99.90;;;;;;5093284;28;20046;-77
2023/05/07 11:33:47;;;;;;;16.70;14.32;;;18.50;99.90;;;;;;5092834;28;20043;-77
2023/05/07 11:36:13;;;;;;;17.80;15.05;;;18.50;99.90;;;;;;5092215;28;20043;-77
2023/05/07 11:38:39;;;;;;;17.15;15.35;;;18.60;99.90;;;;;;5076252;28;20400;-76
2023/05/07 11:41:05;;;;;;;18.75;14.45;;;18.60;99.90;;;;;;5092054;28;20040;-79
2023/05/07 11:43:32;;;;;;;15.52;13.52;;;18.80;99.90;;;;;;5091781;28;20028;-77
2023/05/07 11:46:09;;;;;;;17.52;14.63;;;19.00;99.90;;;;;;5092484;28;20553;-81
2023/05/07 11:48:35;;;;;;;16.45;13.93;;;19.10;99.90;;;;;;5074647;28;20036;-78
2023/05/07 11:51:03;;;;;;;15.70;13.98;;;19.10;99.90;;;;;;5092388;28;20169;-78
2023/05/07 11:53:40;;;;;;;14.70;13.20;;;18.80;99.90;;;;;;5090943;28;20048;-81
2023/05/07 11:56:16;;;;;;;16.95;13.65;;;19.00;99.90;;;;;;5106790;28;20403;-79
2023/05/07 11:58:43;;;;;;;15.30;13.70;;;19.30;99.90;;;;;;5091793;28;20051;-77
2023/05/07 12:01:10;;;;;;;14.35;12.82;;;19.40;99.90;;;;;;5091193;28;20036;-77
2023/05/07 12:03:39;;;;;;;14.13;12.63;;;19.60;99.90;;;;;;5091547;28;20518;-77
2023/05/07 12:06:08;;;;;;;15.57;13.43;;;19.90;99.90;;;;;;5092314;28;20062;-80
2023/05/07 12:08:40;;;;;;;16.25;14.55;;;19.90;99.90;;;;;;5090746;28;20110;-78
2023/05/07 12:11:23;;;;;;;15.90;13.48;;;19.60;99.90;;;;;;5092276;28;20036;-77
2023/05/07 12:13:48;;;;;;;15.43;13.70;;;19.50;99.90;;;;;;5091942;28;20050;-77
2023/05/07 12:16:14;;;;;;;15.13;12.90;;;19.30;99.90;;;;;;5091275;28;20221;-77
2023/05/07 12:18:40;;;;;;;15.38;13.73;;;19.50;99.90;;;;;;5092433;28;20130;-77
2023/05/07 12:21:07;;;;;;;14.93;13.32;;;19.60;99.90;;;;;;5091223;28;20036;-78
2023/05/07 12:23:35;;;;;;;14.73;13.23;;;19.70;99.90;;;;;;5091481;28;20054;-77
2023/05/07 12:26:01;;;;;;;14.50;13.00;;;19.80;99.90;;;;;;5092328;28;20043;-76